sensor_id;sensor_type;location;lat;lon;timestamp;temperature;humidity
24049;DHT22;12250;50.956;4.746;2022-12-18T00:01:58;-6.00;99.90
24049;DHT22;12250;50.956;4.746;2022-12-18T00:04:26;-6.00;99.90
24049;DHT22;12250;50.956;4.746;2022-12-18T00:06:52;-6.00;99.90
24049;DHT22;12250;50.956;4.746;2022-12-18T00:09:18;-6.00;99.90
24049;DHT22;12250;50.956;4.746;2022-12-18T00:11:44;-6.10;99.90
24049;DHT22;12250;50.956;4.746;2022-12-18T00:14:12;-6.10;99.90
24049;DHT22;12250;50.956;4.746;2022-12-18T00:16:38;-6.20;99.90
24049;DHT22;12250;50.956;4.746;2022-12-18T00:19:04;-6.20;99.90
24049;DHT22;12250;50.956;4.746;2022-12-18T00:21:32;-6.30;99.90
24049;DHT22;12250;50.956;4.746;2022-12-18T00:23:59;-6.30;99.90
24049;DHT22;12250;50.956;4.746;2022-12-18T00:26:30;-6.40;99.90
24049;DHT22;12250;50.956;4.746;2022-12-18T00:28:59;-6.30;99.90
24049;DHT22;12250;50.956;4.746;2022-12-18T00:31:26;-6.40;99.90
24049;DHT22;12250;50.956;4.746;2022-12-18T00:33:54;-6.30;99.90
24049;DHT22;12250;50.956;4.746;2022-12-18T00:36:23;-6.40;99.90
24049;DHT22;12250;50.956;4.746;2022-12-18T00:38:50;-6.50;99.90
24049;DHT22;12250;50.956;4.746;2022-12-18T00:41:17;-6.50;99.90
24049;DHT22;12250;50.956;4.746;2022-12-18T00:44:04;-6.60;99.90
24049;DHT22;12250;50.956;4.746;2022-12-18T00:46:30;-6.60;99.90
24049;DHT22;12250;50.956;4.746;2022-12-18T00:48:56;-6.60;99.90
24049;DHT22;12250;50.956;4.746;2022-12-18T00:51:21;-6.60;99.90
24049;DHT22;12250;50.956;4.746;2022-12-18T00:53:47;-6.70;99.90
24049;DHT22;12250;50.956;4.746;2022-12-18T00:56:13;-6.70;99.90
24049;DHT22;12250;50.956;4.746;2022-12-18T00:58:39;-6.70;99.90
24049;DHT22;12250;50.956;4.746;2022-12-18T01:01:05;-6.60;99.90
24049;DHT22;12250;50.956;4.746;2022-12-18T01:03:31;-6.60;99.90
24049;DHT22;12250;50.956;4.746;2022-12-18T01:05:57;-6.60;99.90
24049;DHT22;12250;50.956;4.746;2022-12-18T01:08:23;-6.50;99.90
24049;DHT22;12250;50.956;4.746;2022-12-18T01:10:48;-6.50;99.90
24049;DHT22;12250;50.956;4.746;2022-12-18T01:13:14;-6.50;99.90
24049;DHT22;12250;50.956;4.746;2022-12-18T01:15:39;-6.50;99.90
24049;DHT22;12250;50.956;4.746;2022-12-18T01:18:06;-6.50;99.90
24049;DHT22;12250;50.956;4.746;2022-12-18T01:20:32;-6.60;99.90
24049;DHT22;12250;50.956;4.746;2022-12-18T01:22:57;-6.50;99.90
24049;DHT22;12250;50.956;4.746;2022-12-18T01:25:23;-6.50;99.90
24049;DHT22;12250;50.956;4.746;2022-12-18T01:27:49;-6.50;99.90
24049;DHT22;12250;50.956;4.746;2022-12-18T01:30:14;-6.60;99.90
24049;DHT22;12250;50.956;4.746;2022-12-18T01:32:40;-6.60;99.90
24049;DHT22;12250;50.956;4.746;2022-12-18T01:35:06;-6.70;99.90
24049;DHT22;12250;50.956;4.746;2022-12-18T01:37:32;-6.80;99.90
24049;DHT22;12250;50.956;4.746;2022-12-18T01:39:58;-6.80;99.90
24049;DHT22;12250;50.956;4.746;2022-12-18T01:42:23;-6.80;99.90
24049;DHT22;12250;50.956;4.746;2022-12-18T01:47:46;-6.80;99.90
24049;DHT22;12250;50.956;4.746;2022-12-18T01:50:22;-6.90;99.90
24049;DHT22;12250;50.956;4.746;2022-12-18T01:52:51;-6.90;99.90
24049;DHT22;12250;50.956;4.746;2022-12-18T01:55:20;-6.90;99.90
24049;DHT22;12250;50.956;4.746;2022-12-18T01:57:48;-7.00;99.90
24049;DHT22;12250;50.956;4.746;2022-12-18T02:00:18;-7.00;99.90
24049;DHT22;12250;50.956;4.746;2022-12-18T02:02:46;-7.10;99.90
24049;DHT22;12250;50.956;4.746;2022-12-18T02:05:16;-7.20;99.90
24049;DHT22;12250;50.956;4.746;2022-12-18T02:10:48;-7.10;99.90
24049;DHT22;12250;50.956;4.746;2022-12-18T02:13:20;-7.20;99.90
24049;DHT22;12250;50.956;4.746;2022-12-18T02:18:44;-7.30;99.90
24049;DHT22;12250;50.956;4.746;2022-12-18T02:24:35;-7.30;99.90
24049;DHT22;12250;50.956;4.746;2022-12-18T02:27:06;-7.30;99.90
24049;DHT22;12250;50.956;4.746;2022-12-18T02:29:53;-7.30;99.90
24049;DHT22;12250;50.956;4.746;2022-12-18T02:32:27;-7.40;99.90
24049;DHT22;12250;50.956;4.746;2022-12-18T02:34:55;-7.40;99.90
24049;DHT22;12250;50.956;4.746;2022-12-18T02:37:22;-7.40;99.90
24049;DHT22;12250;50.956;4.746;2022-12-18T02:39:49;-7.50;99.90
24049;DHT22;12250;50.956;4.746;2022-12-18T02:42:17;-7.50;99.90
24049;DHT22;12250;50.956;4.746;2022-12-18T02:44:48;-7.50;99.90
24049;DHT22;12250;50.956;4.746;2022-12-18T02:47:17;-7.50;99.90
24049;DHT22;12250;50.956;4.746;2022-12-18T02:52:28;-7.60;99.90
24049;DHT22;12250;50.956;4.746;2022-12-18T02:55:18;-7.70;99.90
24049;DHT22;12250;50.956;4.746;2022-12-18T02:57:50;-7.80;99.90
24049;DHT22;12250;50.956;4.746;2022-12-18T03:00:24;-7.80;99.90
24049;DHT22;12250;50.956;4.746;2022-12-18T03:05:30;-7.70;99.90
24049;DHT22;12250;50.956;4.746;2022-12-18T03:08:03;-7.70;99.90
24049;DHT22;12250;50.956;4.746;2022-12-18T03:10:29;-7.80;99.90
24049;DHT22;12250;50.956;4.746;2022-12-18T03:13:16;-7.80;99.90
24049;DHT22;12250;50.956;4.746;2022-12-18T03:15:48;-7.80;99.90
24049;DHT22;12250;50.956;4.746;2022-12-18T03:21:27;-7.80;99.90
24049;DHT22;12250;50.956;4.746;2022-12-18T03:23:54;-7.80;99.90
24049;DHT22;12250;50.956;4.746;2022-12-18T03:26:24;-7.80;99.90
24049;DHT22;12250;50.956;4.746;2022-12-18T03:28:54;-7.90;99.90
24049;DHT22;12250;50.956;4.746;2022-12-18T03:31:23;-8.00;99.90
24049;DHT22;12250;50.956;4.746;2022-12-18T03:33:54;-8.00;99.90
24049;DHT22;12250;50.956;4.746;2022-12-18T03:36:21;-8.00;99.90
24049;DHT22;12250;50.956;4.746;2022-12-18T03:38:47;-7.90;99.90
24049;DHT22;12250;50.956;4.746;2022-12-18T03:41:29;-7.90;99.90
24049;DHT22;12250;50.956;4.746;2022-12-18T03:46:36;-7.90;99.90
24049;DHT22;12250;50.956;4.746;2022-12-18T03:49:28;-8.00;99.90
24049;DHT22;12250;50.956;4.746;2022-12-18T03:52:17;-8.00;99.90
24049;DHT22;12250;50.956;4.746;2022-12-18T03:54:45;-8.10;99.90
24049;DHT22;12250;50.956;4.746;2022-12-18T03:57:18;-8.10;99.90
24049;DHT22;12250;50.956;4.746;2022-12-18T03:59:46;-8.10;99.90
24049;DHT22;12250;50.956;4.746;2022-12-18T04:02:14;-8.20;99.90
24049;DHT22;12250;50.956;4.746;2022-12-18T04:04:42;-8.20;99.90
24049;DHT22;12250;50.956;4.746;2022-12-18T04:07:09;-8.20;99.90
24049;DHT22;12250;50.956;4.746;2022-12-18T04:09:38;-8.20;99.90
24049;DHT22;12250;50.956;4.746;2022-12-18T04:12:05;-8.20;99.90
24049;DHT22;12250;50.956;4.746;2022-12-18T04:14:31;-8.20;99.90
24049;DHT22;12250;50.956;4.746;2022-12-18T04:17:01;-8.20;99.90
24049;DHT22;12250;50.956;4.746;2022-12-18T04:19:27;-8.20;99.90
24049;DHT22;12250;50.956;4.746;2022-12-18T04:21:54;-8.20;99.90
24049;DHT22;12250;50.956;4.746;2022-12-18T04:24:19;-8.20;99.90
24049;DHT22;12250;50.956;4.746;2022-12-18T04:26:45;-8.10;99.90
24049;DHT22;12250;50.956;4.746;2022-12-18T04:29:11;-8.10;99.90
24049;DHT22;12250;50.956;4.746;2022-12-18T04:31:36;-8.20;99.90
24049;DHT22;12250;50.956;4.746;2022-12-18T04:34:02;-8.10;99.90
24049;DHT22;12250;50.956;4.746;2022-12-18T04:36:28;-8.20;99.90
24049;DHT22;12250;50.956;4.746;2022-12-18T04:38:54;-8.20;99.90
24049;DHT22;12250;50.956;4.746;2022-12-18T04:41:19;-8.20;99.90
24049;DHT22;12250;50.956;4.746;2022-12-18T04:43:45;-8.20;99.90
24049;DHT22;12250;50.956;4.746;2022-12-18T04:46:11;-8.20;99.90
24049;DHT22;12250;50.956;4.746;2022-12-18T04:48:37;-8.20;99.90
24049;DHT22;12250;50.956;4.746;2022-12-18T04:51:04;-8.20;99.90
24049;DHT22;12250;50.956;4.746;2022-12-18T04:53:30;-8.10;99.90
24049;DHT22;12250;50.956;4.746;2022-12-18T04:56:10;-8.10;99.90
24049;DHT22;12250;50.956;4.746;2022-12-18T04:58:37;-8.20;99.90
24049;DHT22;12250;50.956;4.746;2022-12-18T05:01:03;-8.20;99.90
24049;DHT22;12250;50.956;4.746;2022-12-18T05:03:29;-8.20;99.90
24049;DHT22;12250;50.956;4.746;2022-12-18T05:05:54;-8.20;99.90
24049;DHT22;12250;50.956;4.746;2022-12-18T05:08:20;-8.30;99.90
24049;DHT22;12250;50.956;4.746;2022-12-18T05:10:45;-8.30;99.90
24049;DHT22;12250;50.956;4.746;2022-12-18T05:13:11;-8.20;99.90
24049;DHT22;12250;50.956;4.746;2022-12-18T05:15:37;-8.20;99.90
24049;DHT22;12250;50.956;4.746;2022-12-18T05:18:03;-8.20;99.90
24049;DHT22;12250;50.956;4.746;2022-12-18T05:20:29;-8.10;99.90
24049;DHT22;12250;50.956;4.746;2022-12-18T05:22:55;-8.10;99.90
24049;DHT22;12250;50.956;4.746;2022-12-18T05:25:21;-8.10;99.90
24049;DHT22;12250;50.956;4.746;2022-12-18T05:27:48;-8.00;99.90
24049;DHT22;12250;50.956;4.746;2022-12-18T05:30:14;-8.00;99.90
24049;DHT22;12250;50.956;4.746;2022-12-18T05:32:40;-8.00;99.90
24049;DHT22;12250;50.956;4.746;2022-12-18T05:35:07;-7.90;99.90
24049;DHT22;12250;50.956;4.746;2022-12-18T05:37:33;-7.90;99.90
24049;DHT22;12250;50.956;4.746;2022-12-18T05:39:59;-7.80;99.90
24049;DHT22;12250;50.956;4.746;2022-12-18T05:42:25;-7.90;99.90
24049;DHT22;12250;50.956;4.746;2022-12-18T05:44:50;-7.80;99.90
24049;DHT22;12250;50.956;4.746;2022-12-18T05:47:16;-7.80;99.90
24049;DHT22;12250;50.956;4.746;2022-12-18T05:49:41;-7.80;99.90
24049;DHT22;12250;50.956;4.746;2022-12-18T05:52:08;-7.80;99.90
24049;DHT22;12250;50.956;4.746;2022-12-18T05:54:34;-7.70;99.90
24049;DHT22;12250;50.956;4.746;2022-12-18T05:57:00;-7.60;99.90
24049;DHT22;12250;50.956;4.746;2022-12-18T05:59:25;-7.60;99.90
24049;DHT22;12250;50.956;4.746;2022-12-18T06:01:51;-7.60;99.90
24049;DHT22;12250;50.956;4.746;2022-12-18T06:04:19;-7.60;99.90
24049;DHT22;12250;50.956;4.746;2022-12-18T06:06:45;-7.60;99.90
24049;DHT22;12250;50.956;4.746;2022-12-18T06:09:11;-7.60;99.90
24049;DHT22;12250;50.956;4.746;2022-12-18T06:11:38;-7.50;99.90
24049;DHT22;12250;50.956;4.746;2022-12-18T06:14:05;-7.60;99.90
24049;DHT22;12250;50.956;4.746;2022-12-18T06:16:31;-7.60;99.90
24049;DHT22;12250;50.956;4.746;2022-12-18T06:18:58;-7.70;99.90
24049;DHT22;12250;50.956;4.746;2022-12-18T06:21:24;-7.70;99.90
24049;DHT22;12250;50.956;4.746;2022-12-18T06:23:50;-7.60;99.90
24049;DHT22;12250;50.956;4.746;2022-12-18T06:26:15;-7.70;99.90
24049;DHT22;12250;50.956;4.746;2022-12-18T06:28:41;-7.70;99.90
24049;DHT22;12250;50.956;4.746;2022-12-18T06:31:08;-7.70;99.90
24049;DHT22;12250;50.956;4.746;2022-12-18T06:33:34;-7.70;99.90
24049;DHT22;12250;50.956;4.746;2022-12-18T06:36:01;-7.60;99.90
24049;DHT22;12250;50.956;4.746;2022-12-18T06:38:27;-7.60;99.90
24049;DHT22;12250;50.956;4.746;2022-12-18T06:40:53;-7.60;99.90
24049;DHT22;12250;50.956;4.746;2022-12-18T06:43:18;-7.60;99.90
24049;DHT22;12250;50.956;4.746;2022-12-18T06:45:44;-7.60;99.90
24049;DHT22;12250;50.956;4.746;2022-12-18T06:48:10;-7.50;99.90
24049;DHT22;12250;50.956;4.746;2022-12-18T06:50:35;-7.50;99.90
24049;DHT22;12250;50.956;4.746;2022-12-18T06:53:01;-7.50;99.90
24049;DHT22;12250;50.956;4.746;2022-12-18T06:55:27;-7.50;99.90
24049;DHT22;12250;50.956;4.746;2022-12-18T06:57:52;-7.40;99.90
24049;DHT22;12250;50.956;4.746;2022-12-18T07:00:18;-7.40;99.90
24049;DHT22;12250;50.956;4.746;2022-12-18T07:02:44;-7.40;99.90
24049;DHT22;12250;50.956;4.746;2022-12-18T07:05:09;-7.40;99.90
24049;DHT22;12250;50.956;4.746;2022-12-18T07:07:35;-7.40;99.90
24049;DHT22;12250;50.956;4.746;2022-12-18T07:10:01;-7.40;99.90
24049;DHT22;12250;50.956;4.746;2022-12-18T07:12:27;-7.40;99.90
24049;DHT22;12250;50.956;4.746;2022-12-18T07:14:53;-7.40;99.90
24049;DHT22;12250;50.956;4.746;2022-12-18T07:17:18;-7.40;99.90
24049;DHT22;12250;50.956;4.746;2022-12-18T07:19:44;-7.40;99.90
24049;DHT22;12250;50.956;4.746;2022-12-18T07:22:10;-7.40;99.90
24049;DHT22;12250;50.956;4.746;2022-12-18T07:24:35;-7.30;99.90
24049;DHT22;12250;50.956;4.746;2022-12-18T07:27:01;-7.30;99.90
24049;DHT22;12250;50.956;4.746;2022-12-18T07:29:27;-7.30;99.90
24049;DHT22;12250;50.956;4.746;2022-12-18T07:31:52;-7.20;99.90
24049;DHT22;12250;50.956;4.746;2022-12-18T07:34:18;-7.20;99.90
24049;DHT22;12250;50.956;4.746;2022-12-18T07:36:44;-7.20;99.90
24049;DHT22;12250;50.956;4.746;2022-12-18T07:39:11;-7.10;99.90
24049;DHT22;12250;50.956;4.746;2022-12-18T07:41:37;-7.00;99.90
24049;DHT22;12250;50.956;4.746;2022-12-18T07:44:03;-7.00;99.90
24049;DHT22;12250;50.956;4.746;2022-12-18T07:46:28;-7.00;99.90
24049;DHT22;12250;50.956;4.746;2022-12-18T07:48:54;-7.00;99.90
24049;DHT22;12250;50.956;4.746;2022-12-18T07:51:20;-6.90;99.90
24049;DHT22;12250;50.956;4.746;2022-12-18T07:53:46;-7.00;99.90
24049;DHT22;12250;50.956;4.746;2022-12-18T07:56:12;-6.90;99.90
24049;DHT22;12250;50.956;4.746;2022-12-18T07:58:38;-7.00;99.90
24049;DHT22;12250;50.956;4.746;2022-12-18T08:01:09;-7.00;99.90
24049;DHT22;12250;50.956;4.746;2022-12-18T08:03:35;-6.90;99.90
24049;DHT22;12250;50.956;4.746;2022-12-18T08:06:02;-6.90;99.90
24049;DHT22;12250;50.956;4.746;2022-12-18T08:08:29;-6.80;99.90
24049;DHT22;12250;50.956;4.746;2022-12-18T08:10:55;-6.80;99.90
24049;DHT22;12250;50.956;4.746;2022-12-18T08:13:21;-6.70;99.90
24049;DHT22;12250;50.956;4.746;2022-12-18T08:15:59;-6.60;99.90
24049;DHT22;12250;50.956;4.746;2022-12-18T08:18:25;-6.60;99.90
24049;DHT22;12250;50.956;4.746;2022-12-18T08:20:51;-6.50;99.90
24049;DHT22;12250;50.956;4.746;2022-12-18T08:23:17;-6.50;99.90
24049;DHT22;12250;50.956;4.746;2022-12-18T08:25:43;-6.40;99.90
24049;DHT22;12250;50.956;4.746;2022-12-18T08:28:09;-6.30;99.90
24049;DHT22;12250;50.956;4.746;2022-12-18T08:30:35;-6.20;99.90
24049;DHT22;12250;50.956;4.746;2022-12-18T08:33:01;-6.10;99.90
24049;DHT22;12250;50.956;4.746;2022-12-18T08:35:27;-5.90;99.90
24049;DHT22;12250;50.956;4.746;2022-12-18T08:37:53;-5.80;99.90
24049;DHT22;12250;50.956;4.746;2022-12-18T08:40:19;-5.60;99.90
24049;DHT22;12250;50.956;4.746;2022-12-18T08:42:45;-5.50;99.90
24049;DHT22;12250;50.956;4.746;2022-12-18T08:45:29;-5.30;99.90
24049;DHT22;12250;50.956;4.746;2022-12-18T08:47:54;-5.10;99.90
24049;DHT22;12250;50.956;4.746;2022-12-18T08:50:20;-4.90;99.90
24049;DHT22;12250;50.956;4.746;2022-12-18T08:52:46;-4.70;99.90
24049;DHT22;12250;50.956;4.746;2022-12-18T08:55:12;-4.40;99.90
24049;DHT22;12250;50.956;4.746;2022-12-18T08:57:37;-4.20;99.90
24049;DHT22;12250;50.956;4.746;2022-12-18T09:00:04;-4.00;99.90
24049;DHT22;12250;50.956;4.746;2022-12-18T09:02:30;-3.80;99.90
24049;DHT22;12250;50.956;4.746;2022-12-18T09:04:55;-3.70;99.90
24049;DHT22;12250;50.956;4.746;2022-12-18T09:07:21;-3.50;99.90
24049;DHT22;12250;50.956;4.746;2022-12-18T09:09:46;-3.40;99.90
24049;DHT22;12250;50.956;4.746;2022-12-18T09:12:12;-3.20;99.90
24049;DHT22;12250;50.956;4.746;2022-12-18T09:14:38;-3.10;99.90
24049;DHT22;12250;50.956;4.746;2022-12-18T09:17:03;-3.00;99.90
24049;DHT22;12250;50.956;4.746;2022-12-18T09:19:29;-2.80;99.90
24049;DHT22;12250;50.956;4.746;2022-12-18T09:21:55;-2.70;99.90
24049;DHT22;12250;50.956;4.746;2022-12-18T09:24:20;-2.50;99.90
24049;DHT22;12250;50.956;4.746;2022-12-18T09:26:46;-2.40;99.90
24049;DHT22;12250;50.956;4.746;2022-12-18T09:29:12;-2.20;99.90
24049;DHT22;12250;50.956;4.746;2022-12-18T09:31:38;-2.20;99.90
24049;DHT22;12250;50.956;4.746;2022-12-18T09:34:04;-2.00;99.90
24049;DHT22;12250;50.956;4.746;2022-12-18T09:36:29;-1.80;99.90
24049;DHT22;12250;50.956;4.746;2022-12-18T09:38:55;-1.60;99.90
24049;DHT22;12250;50.956;4.746;2022-12-18T09:44:00;-1.30;99.90
24049;DHT22;12250;50.956;4.746;2022-12-18T09:46:35;-1.30;99.90
24049;DHT22;12250;50.956;4.746;2022-12-18T09:49:06;-1.40;99.90
24049;DHT22;12250;50.956;4.746;2022-12-18T09:51:37;-1.30;99.90
24049;DHT22;12250;50.956;4.746;2022-12-18T09:54:14;-1.10;99.90
24049;DHT22;12250;50.956;4.746;2022-12-18T09:56:42;-1.00;99.90
24049;DHT22;12250;50.956;4.746;2022-12-18T09:59:23;-0.90;99.90
24049;DHT22;12250;50.956;4.746;2022-12-18T10:01:50;-0.80;99.90
24049;DHT22;12250;50.956;4.746;2022-12-18T10:04:16;-0.70;99.90
24049;DHT22;12250;50.956;4.746;2022-12-18T10:06:59;-0.60;99.90
24049;DHT22;12250;50.956;4.746;2022-12-18T10:14:46;-0.30;99.90
24049;DHT22;12250;50.956;4.746;2022-12-18T10:28:17;-0.10;99.90
24049;DHT22;12250;50.956;4.746;2022-12-18T10:30:43;0.00;99.90
24049;DHT22;12250;50.956;4.746;2022-12-18T10:33:24;0.10;99.90
24049;DHT22;12250;50.956;4.746;2022-12-18T10:35:51;0.00;99.90
24049;DHT22;12250;50.956;4.746;2022-12-18T10:38:38;-0.10;99.90
24049;DHT22;12250;50.956;4.746;2022-12-18T10:41:05;-0.10;99.90
24049;DHT22;12250;50.956;4.746;2022-12-18T10:43:37;-0.10;99.90
24049;DHT22;12250;50.956;4.746;2022-12-18T10:51:07;0.00;99.90
24049;DHT22;12250;50.956;4.746;2022-12-18T10:53:35;0.00;99.90
24049;DHT22;12250;50.956;4.746;2022-12-18T10:56:04;0.10;99.90
24049;DHT22;12250;50.956;4.746;2022-12-18T10:58:31;0.30;99.90
24049;DHT22;12250;50.956;4.746;2022-12-18T11:01:10;0.30;99.90
24049;DHT22;12250;50.956;4.746;2022-12-18T11:03:37;0.40;99.90
24049;DHT22;12250;50.956;4.746;2022-12-18T11:06:16;0.50;99.90
24049;DHT22;12250;50.956;4.746;2022-12-18T11:08:43;0.60;99.90
24049;DHT22;12250;50.956;4.746;2022-12-18T11:11:20;0.60;99.90
24049;DHT22;12250;50.956;4.746;2022-12-18T11:16:23;1.00;99.90
24049;DHT22;12250;50.956;4.746;2022-12-18T11:18:49;0.90;99.90
24049;DHT22;12250;50.956;4.746;2022-12-18T11:21:15;1.10;99.90
24049;DHT22;12250;50.956;4.746;2022-12-18T11:23:49;1.20;99.90
24049;DHT22;12250;50.956;4.746;2022-12-18T11:26:16;1.30;99.90
24049;DHT22;12250;50.956;4.746;2022-12-18T11:29:08;1.40;99.90
24049;DHT22;12250;50.956;4.746;2022-12-18T11:31:34;1.60;99.90
24049;DHT22;12250;50.956;4.746;2022-12-18T11:34:12;1.70;99.90
24049;DHT22;12250;50.956;4.746;2022-12-18T11:36:45;1.70;99.90
24049;DHT22;12250;50.956;4.746;2022-12-18T11:42:08;2.00;99.90
24049;DHT22;12250;50.956;4.746;2022-12-18T11:49:51;1.80;99.90
24049;DHT22;12250;50.956;4.746;2022-12-18T11:52:22;1.80;99.90
24049;DHT22;12250;50.956;4.746;2022-12-18T11:54:59;1.70;99.90
24049;DHT22;12250;50.956;4.746;2022-12-18T11:57:36;1.70;99.90
24049;DHT22;12250;50.956;4.746;2022-12-18T12:00:16;1.70;99.90
24049;DHT22;12250;50.956;4.746;2022-12-18T12:08:37;1.80;99.90
24049;DHT22;12250;50.956;4.746;2022-12-18T12:11:24;1.80;99.90
24049;DHT22;12250;50.956;4.746;2022-12-18T12:14:22;1.80;99.90
24049;DHT22;12250;50.956;4.746;2022-12-18T12:17:33;1.90;99.90
24049;DHT22;12250;50.956;4.746;2022-12-18T12:25:46;2.00;99.90
24049;DHT22;12250;50.956;4.746;2022-12-18T12:31:25;2.00;99.90
24049;DHT22;12250;50.956;4.746;2022-12-18T12:37:04;2.10;99.90
24049;DHT22;12250;50.956;4.746;2022-12-18T12:39:36;2.10;99.90
24049;DHT22;12250;50.956;4.746;2022-12-18T12:42:15;2.10;99.90
24049;DHT22;12250;50.956;4.746;2022-12-18T12:45:05;2.20;99.90
24049;DHT22;12250;50.956;4.746;2022-12-18T12:47:35;2.30;99.90
24049;DHT22;12250;50.956;4.746;2022-12-18T12:50:04;2.30;99.90
24049;DHT22;12250;50.956;4.746;2022-12-18T12:52:43;2.30;99.90
24049;DHT22;12250;50.956;4.746;2022-12-18T12:55:36;2.30;99.90
24049;DHT22;12250;50.956;4.746;2022-12-18T12:58:55;2.30;99.90
24049;DHT22;12250;50.956;4.746;2022-12-18T13:03:58;2.40;99.90
24049;DHT22;12250;50.956;4.746;2022-12-18T13:06:48;2.50;99.90
24049;DHT22;12250;50.956;4.746;2022-12-18T13:09:15;2.50;99.90
24049;DHT22;12250;50.956;4.746;2022-12-18T13:11:46;2.60;99.90
24049;DHT22;12250;50.956;4.746;2022-12-18T13:17:24;2.60;99.90
24049;DHT22;12250;50.956;4.746;2022-12-18T13:20:13;2.60;99.90
24049;DHT22;12250;50.956;4.746;2022-12-18T13:22:48;2.70;99.90
24049;DHT22;12250;50.956;4.746;2022-12-18T13:25:37;2.50;99.90
24049;DHT22;12250;50.956;4.746;2022-12-18T13:28:11;2.50;99.90
24049;DHT22;12250;50.956;4.746;2022-12-18T13:30:42;2.50;99.90
24049;DHT22;12250;50.956;4.746;2022-12-18T13:40:57;2.60;99.90
24049;DHT22;12250;50.956;4.746;2022-12-18T13:46:16;2.50;99.90
24049;DHT22;12250;50.956;4.746;2022-12-18T13:48:53;2.50;99.90
24049;DHT22;12250;50.956;4.746;2022-12-18T13:51:21;2.50;99.90
24049;DHT22;12250;50.956;4.746;2022-12-18T13:53:56;2.50;99.90
24049;DHT22;12250;50.956;4.746;2022-12-18T13:56:32;2.50;99.90
24049;DHT22;12250;50.956;4.746;2022-12-18T14:04:39;2.30;99.90
24049;DHT22;12250;50.956;4.746;2022-12-18T14:07:14;2.30;99.90
24049;DHT22;12250;50.956;4.746;2022-12-18T14:10:03;2.30;99.90
24049;DHT22;12250;50.956;4.746;2022-12-18T14:12:31;2.20;99.90
24049;DHT22;12250;50.956;4.746;2022-12-18T14:15:48;2.20;99.90
24049;DHT22;12250;50.956;4.746;2022-12-18T14:21:04;2.30;99.90
24049;DHT22;12250;50.956;4.746;2022-12-18T14:26:00;2.30;99.90
24049;DHT22;12250;50.956;4.746;2022-12-18T14:28:26;2.30;99.90
24049;DHT22;12250;50.956;4.746;2022-12-18T14:30:52;2.20;99.90
24049;DHT22;12250;50.956;4.746;2022-12-18T14:33:21;2.20;99.90
24049;DHT22;12250;50.956;4.746;2022-12-18T14:36:02;2.00;99.90
24049;DHT22;12250;50.956;4.746;2022-12-18T14:38:39;2.00;99.90
24049;DHT22;12250;50.956;4.746;2022-12-18T14:41:16;2.00;99.90
24049;DHT22;12250;50.956;4.746;2022-12-18T14:43:44;1.90;99.90
24049;DHT22;12250;50.956;4.746;2022-12-18T14:46:49;1.90;99.90
24049;DHT22;12250;50.956;4.746;2022-12-18T14:49:34;1.70;99.90
24049;DHT22;12250;50.956;4.746;2022-12-18T14:52:15;1.80;99.90
24049;DHT22;12250;50.956;4.746;2022-12-18T14:54:46;1.90;99.90
24049;DHT22;12250;50.956;4.746;2022-12-18T14:57:29;1.90;99.90
24049;DHT22;12250;50.956;4.746;2022-12-18T15:00:11;1.90;99.90
24049;DHT22;12250;50.956;4.746;2022-12-18T15:02:40;1.80;99.90
24049;DHT22;12250;50.956;4.746;2022-12-18T15:07:49;1.80;99.90
24049;DHT22;12250;50.956;4.746;2022-12-18T15:12:50;1.80;99.90
24049;DHT22;12250;50.956;4.746;2022-12-18T15:20:46;1.70;99.90
24049;DHT22;12250;50.956;4.746;2022-12-18T15:23:26;1.80;99.90
24049;DHT22;12250;50.956;4.746;2022-12-18T15:26:01;1.70;99.90
24049;DHT22;12250;50.956;4.746;2022-12-18T15:28:37;1.70;99.90
24049;DHT22;12250;50.956;4.746;2022-12-18T15:33:36;1.70;99.90
24049;DHT22;12250;50.956;4.746;2022-12-18T15:36:12;1.60;99.90
24049;DHT22;12250;50.956;4.746;2022-12-18T15:38:38;1.60;99.90
24049;DHT22;12250;50.956;4.746;2022-12-18T15:41:04;1.60;99.90
24049;DHT22;12250;50.956;4.746;2022-12-18T15:43:30;1.50;99.90
24049;DHT22;12250;50.956;4.746;2022-12-18T15:45:59;1.50;99.90
24049;DHT22;12250;50.956;4.746;2022-12-18T15:48:25;1.50;99.90
24049;DHT22;12250;50.956;4.746;2022-12-18T15:50:52;1.40;99.90
24049;DHT22;12250;50.956;4.746;2022-12-18T15:53:19;1.50;99.90
24049;DHT22;12250;50.956;4.746;2022-12-18T15:55:45;1.40;99.90
24049;DHT22;12250;50.956;4.746;2022-12-18T15:58:29;1.50;99.90
24049;DHT22;12250;50.956;4.746;2022-12-18T16:00:57;1.50;99.90
24049;DHT22;12250;50.956;4.746;2022-12-18T16:03:23;1.50;99.90
24049;DHT22;12250;50.956;4.746;2022-12-18T16:05:49;1.50;99.90
24049;DHT22;12250;50.956;4.746;2022-12-18T16:08:15;1.60;99.90
24049;DHT22;12250;50.956;4.746;2022-12-18T16:10:40;1.60;99.90
24049;DHT22;12250;50.956;4.746;2022-12-18T16:13:09;1.50;99.90
24049;DHT22;12250;50.956;4.746;2022-12-18T16:15:35;1.50;99.90
24049;DHT22;12250;50.956;4.746;2022-12-18T16:18:00;1.60;99.90
24049;DHT22;12250;50.956;4.746;2022-12-18T16:20:26;1.60;99.90
24049;DHT22;12250;50.956;4.746;2022-12-18T16:22:52;1.70;99.90
24049;DHT22;12250;50.956;4.746;2022-12-18T16:25:24;1.60;99.90
24049;DHT22;12250;50.956;4.746;2022-12-18T16:27:51;1.70;99.90
24049;DHT22;12250;50.956;4.746;2022-12-18T16:30:19;1.60;99.90
24049;DHT22;12250;50.956;4.746;2022-12-18T16:32:46;1.60;99.90
24049;DHT22;12250;50.956;4.746;2022-12-18T16:35:13;1.70;99.90
24049;DHT22;12250;50.956;4.746;2022-12-18T16:37:40;1.70;99.90
24049;DHT22;12250;50.956;4.746;2022-12-18T16:40:08;1.70;99.90
24049;DHT22;12250;50.956;4.746;2022-12-18T16:42:35;1.80;99.90
24049;DHT22;12250;50.956;4.746;2022-12-18T16:45:02;1.80;99.90
24049;DHT22;12250;50.956;4.746;2022-12-18T16:47:29;1.80;99.90
24049;DHT22;12250;50.956;4.746;2022-12-18T16:49:54;1.80;99.90
24049;DHT22;12250;50.956;4.746;2022-12-18T16:52:20;1.80;99.90
24049;DHT22;12250;50.956;4.746;2022-12-18T16:54:46;1.80;99.90
24049;DHT22;12250;50.956;4.746;2022-12-18T16:57:14;1.70;99.90
24049;DHT22;12250;50.956;4.746;2022-12-18T16:59:40;1.70;99.90
24049;DHT22;12250;50.956;4.746;2022-12-18T17:02:28;1.90;99.90
24049;DHT22;12250;50.956;4.746;2022-12-18T17:04:56;1.80;99.90
24049;DHT22;12250;50.956;4.746;2022-12-18T17:07:23;1.90;99.90
24049;DHT22;12250;50.956;4.746;2022-12-18T17:09:49;1.90;99.90
24049;DHT22;12250;50.956;4.746;2022-12-18T17:12:15;1.80;99.90
24049;DHT22;12250;50.956;4.746;2022-12-18T17:14:41;2.00;99.90
24049;DHT22;12250;50.956;4.746;2022-12-18T17:17:07;1.90;99.90
24049;DHT22;12250;50.956;4.746;2022-12-18T17:19:32;1.90;99.90
24049;DHT22;12250;50.956;4.746;2022-12-18T17:21:58;1.90;99.90
24049;DHT22;12250;50.956;4.746;2022-12-18T17:24:24;1.90;99.90
24049;DHT22;12250;50.956;4.746;2022-12-18T17:26:50;1.90;99.90
24049;DHT22;12250;50.956;4.746;2022-12-18T17:29:18;1.90;99.90
24049;DHT22;12250;50.956;4.746;2022-12-18T17:31:45;1.90;99.90
24049;DHT22;12250;50.956;4.746;2022-12-18T17:34:11;2.00;99.90
24049;DHT22;12250;50.956;4.746;2022-12-18T17:36:37;1.90;99.90
24049;DHT22;12250;50.956;4.746;2022-12-18T17:39:05;1.90;99.90
24049;DHT22;12250;50.956;4.746;2022-12-18T17:41:31;2.00;99.90
24049;DHT22;12250;50.956;4.746;2022-12-18T17:44:03;2.10;99.90
24049;DHT22;12250;50.956;4.746;2022-12-18T17:46:30;1.80;99.90
24049;DHT22;12250;50.956;4.746;2022-12-18T17:48:58;1.90;99.90